Time;durP1;ratioP1;P1;durP2;ratioP2;P2;SDS_P1;SDS_P2;PMS_P1;PMS_P2;Temp;Humidity;BMP_temperature;BMP_pressure;BME280_temperature;BME280_humidity;BME280_pressure;Samples;Min_cycle;Max_cycle;Signal;HPM_P1;HPM_P2
2022/09/08 00:01:32;;;;;;;9.60;3.15;;;;;;;18.62;74.42;100837.50;5056261;28;20365;-83
2022/09/08 00:03:57;;;;;;;8.83;3.20;;;;;;;18.60;75.42;100838.66;5058036;28;20075;-82
2022/09/08 00:06:23;;;;;;;14.05;3.38;;;;;;;18.58;75.97;100843.38;5062051;28;20302;-82
2022/09/08 00:08:53;;;;;;;13.30;3.70;;;;;;;18.57;77.38;100841.69;5068684;28;20033;-82
2022/09/08 00:11:22;;;;;;;9.48;3.28;;;;;;;18.54;77.47;100848.28;5077621;28;20032;-82
2022/09/08 00:13:48;;;;;;;14.30;3.72;;;;;;;18.51;77.34;100847.78;5078375;28;20032;-81
2022/09/08 00:16:18;;;;;;;11.15;3.42;;;;;;;18.48;78.42;100854.31;5078895;28;20081;-82
2022/09/08 00:18:43;;;;;;;10.63;3.30;;;;;;;18.46;77.30;100850.97;5075283;28;20555;-81
2022/09/08 00:21:09;;;;;;;10.00;3.28;;;;;;;18.39;78.23;100848.09;5078681;28;20029;-81
2022/09/08 00:23:34;;;;;;;9.95;3.22;;;;;;;18.37;79.83;100838.50;5080866;28;20017;-82
2022/09/08 00:25:59;;;;;;;11.65;3.58;;;;;;;18.34;80.61;100825.44;5080813;28;20012;-82
2022/09/08 00:28:25;;;;;;;11.40;3.10;;;;;;;18.33;81.35;100818.38;5076341;28;20056;-82
2022/09/08 00:30:50;;;;;;;9.60;3.40;;;;;;;18.33;80.90;100813.81;5080413;28;20028;-82
2022/09/08 00:33:15;;;;;;;8.73;3.38;;;;;;;18.28;81.36;100810.78;5080934;28;20045;-81
2022/09/08 00:35:42;;;;;;;10.57;3.53;;;;;;;18.29;81.49;100812.50;5077387;28;20021;-83
2022/09/08 00:38:08;;;;;;;9.75;3.58;;;;;;;18.27;80.63;100819.91;5072507;28;20052;-82
2022/09/08 00:40:41;;;;;;;9.53;3.47;;;;;;;18.22;81.10;100815.00;5077165;28;20044;-83
2022/09/08 00:43:07;;;;;;;11.27;3.30;;;;;;;18.22;81.07;100808.78;5076234;28;20272;-83
2022/09/08 00:45:37;;;;;;;10.05;3.17;;;;;;;18.19;80.34;100809.97;5076841;28;20056;-82
2022/09/08 00:48:15;;;;;;;8.18;3.17;;;;;;;18.16;80.91;100813.00;5080606;28;20036;-82
2022/09/08 00:50:40;;;;;;;9.43;3.15;;;;;;;18.12;82.27;100806.28;5067639;28;20016;-82
2022/09/08 00:53:11;;;;;;;9.27;2.92;;;;;;;18.12;82.47;100796.38;5110447;22;20053;-78
2022/09/08 00:55:38;;;;;;;12.20;3.58;;;;;;;18.12;82.02;100798.22;5050415;28;20029;-78
2022/09/08 00:58:09;;;;;;;7.53;3.00;;;;;;;18.12;82.94;100790.16;5029066;28;20087;-79
2022/09/08 01:00:42;;;;;;;13.02;4.25;;;;;;;18.03;82.79;100788.47;5047807;28;20029;-79
2022/09/08 01:03:10;;;;;;;11.65;3.75;;;;;;;18.03;83.31;100791.16;5056652;28;20411;-79
2022/09/08 01:05:52;;;;;;;12.43;3.83;;;;;;;18.00;83.81;100789.66;5020462;28;20033;-80
2022/09/08 01:14:01;;;;;;;6.95;3.03;;;;;;;17.97;84.51;100798.03;5035130;28;20040;-80
2022/09/08 01:16:53;;;;;;;6.13;2.63;;;;;;;18.01;82.62;100785.94;5051541;28;20032;-80
2022/09/08 01:19:28;;;;;;;9.65;3.45;;;;;;;17.97;85.33;100781.06;5043769;28;20051;-80
2022/09/08 01:22:06;;;;;;;7.95;2.90;;;;;;;17.94;86.24;100769.66;5041682;28;20031;-80
2022/09/08 01:24:45;;;;;;;10.15;2.83;;;;;;;17.88;85.91;100756.88;5051633;28;20033;-80
2022/09/08 01:27:24;;;;;;;8.07;3.15;;;;;;;17.90;85.29;100746.81;5054408;28;20033;-80
2022/09/08 01:29:56;;;;;;;8.20;3.13;;;;;;;17.87;86.69;100747.16;5054506;28;20112;-80
2022/09/08 01:32:28;;;;;;;10.20;2.78;;;;;;;17.90;85.17;100741.44;5054691;28;20029;-80
2022/09/08 01:34:54;;;;;;;8.68;2.80;;;;;;;17.89;83.46;100739.75;5041452;28;20045;-80
2022/09/08 01:37:19;;;;;;;5.03;2.38;;;;;;;17.76;85.48;100732.16;5054208;28;20032;-80
2022/09/08 01:39:45;;;;;;;6.90;2.83;;;;;;;17.80;86.96;100759.53;5054131;28;20044;-79
2022/09/08 01:42:11;;;;;;;7.72;2.78;;;;;;;17.81;85.62;100753.16;5053092;28;20086;-80
2022/09/08 01:44:36;;;;;;;7.47;2.85;;;;;;;17.82;85.48;100745.94;5036310;28;20071;-80
2022/09/08 01:47:02;;;;;;;6.85;2.83;;;;;;;17.78;85.96;100749.97;5054671;28;20486;-81
2022/09/08 01:49:27;;;;;;;6.70;2.55;;;;;;;17.79;87.32;100749.81;5032995;28;20472;-81
2022/09/08 01:51:53;;;;;;;8.02;3.00;;;;;;;17.77;87.52;100733.03;5045374;28;20049;-80
2022/09/08 01:54:18;;;;;;;6.28;2.35;;;;;;;17.78;86.57;100731.16;5034178;28;20031;-80
2022/09/08 01:56:48;;;;;;;6.45;2.65;;;;;;;17.73;87.14;100737.84;5034054;28;20091;-81
2022/09/08 01:59:14;;;;;;;7.63;2.78;;;;;;;17.74;86.78;100741.41;5027943;28;20495;-81
2022/09/08 02:01:40;;;;;;;5.30;2.40;;;;;;;17.69;88.05;100735.69;5033838;28;20116;-80
2022/09/08 02:04:06;;;;;;;7.70;3.00;;;;;;;17.68;89.31;100728.63;5033819;28;20105;-80
2022/09/08 02:06:32;;;;;;;6.32;2.97;;;;;;;17.70;88.32;100724.78;5030206;28;20026;-80
2022/09/08 02:08:57;;;;;;;6.60;2.90;;;;;;;17.63;88.42;100709.50;5033971;28;20399;-80
2022/09/08 02:11:23;;;;;;;6.03;2.72;;;;;;;17.63;86.50;100701.44;5023575;28;20084;-80
2022/09/08 02:13:49;;;;;;;6.45;2.78;;;;;;;17.55;86.53;100696.91;5020852;28;20025;-80
2022/09/08 02:16:15;;;;;;;6.53;2.40;;;;;;;17.59;87.57;100703.63;5034144;28;20112;-81
2022/09/08 02:18:40;;;;;;;7.63;2.85;;;;;;;17.59;87.29;100700.94;5031025;28;20033;-80
2022/09/08 02:21:06;;;;;;;5.40;2.78;;;;;;;17.59;86.25;100705.47;5027998;28;20032;-80
2022/09/08 02:23:32;;;;;;;7.85;3.30;;;;;;;17.55;86.89;100703.13;5033619;28;20037;-80
2022/09/08 02:25:57;;;;;;;5.68;3.00;;;;;;;17.55;88.39;100703.13;5015884;28;20052;-79
2022/09/08 02:28:23;;;;;;;6.03;2.78;;;;;;;17.59;87.09;100706.31;5033861;28;20049;-80
2022/09/08 02:30:48;;;;;;;6.45;2.70;;;;;;;17.54;86.88;100697.91;5033590;28;20104;-80
2022/09/08 02:33:15;;;;;;;7.22;3.25;;;;;;;17.53;87.44;100706.97;5033393;28;20029;-80
2022/09/08 02:35:41;;;;;;;6.07;2.67;;;;;;;17.54;87.82;100693.38;5033679;28;20471;-80
2022/09/08 02:38:06;;;;;;;6.40;2.83;;;;;;;17.54;86.41;100690.69;5015994;28;20116;-80
2022/09/08 02:40:31;;;;;;;8.48;2.90;;;;;;;17.49;86.16;100694.91;5022956;28;20029;-80
2022/09/08 02:42:57;;;;;;;7.55;2.58;;;;;;;17.47;85.48;100694.19;5014149;28;20018;-80
2022/09/08 02:45:22;;;;;;;8.18;2.90;;;;;;;17.40;87.15;100702.09;5033640;28;20025;-80
2022/09/08 02:47:47;;;;;;;6.63;2.80;;;;;;;17.44;86.74;100699.94;5015578;28;20450;-80
2022/09/08 02:50:13;;;;;;;6.97;2.80;;;;;;;17.42;86.70;100696.53;5033344;28;20041;-80
2022/09/08 02:52:38;;;;;;;9.27;3.08;;;;;;;17.39;85.34;100697.72;5033265;28;20443;-80
2022/09/08 02:55:04;;;;;;;6.82;2.88;;;;;;;17.36;86.40;100712.31;5033401;28;20033;-80
2022/09/08 02:57:29;;;;;;;5.78;2.65;;;;;;;17.30;87.62;100702.25;5026153;28;20022;-81
2022/09/08 02:59:55;;;;;;;6.00;2.80;;;;;;;17.36;87.54;100698.88;5033200;28;20061;-80
2022/09/08 03:02:21;;;;;;;6.88;2.60;;;;;;;17.33;86.03;100703.75;5033459;28;20264;-80
2022/09/08 03:04:46;;;;;;;6.15;2.95;;;;;;;17.30;86.30;100696.03;5033223;28;20083;-80
2022/09/08 03:07:12;;;;;;;7.60;3.00;;;;;;;17.31;85.81;100695.03;5032211;28;20117;-81
2022/09/08 03:09:37;;;;;;;11.23;3.80;;;;;;;17.24;85.60;100697.53;5033012;28;20021;-80
2022/09/08 03:12:03;;;;;;;9.27;2.90;;;;;;;17.15;86.83;100694.00;5031079;28;20034;-80
2022/09/08 03:14:28;;;;;;;5.43;2.97;;;;;;;17.16;86.67;100700.22;5031261;28;20025;-80
2022/09/08 03:16:54;;;;;;;7.93;3.17;;;;;;;17.14;86.63;100695.00;5032885;28;20021;-81
2022/09/08 03:19:19;;;;;;;6.35;3.00;;;;;;;17.12;86.76;100696.16;5033062;28;20030;-80
2022/09/08 03:21:44;;;;;;;7.53;3.10;;;;;;;17.12;86.02;100694.34;5033110;28;20105;-80
2022/09/08 03:24:10;;;;;;;7.90;3.05;;;;;;;17.12;87.24;100697.00;5015349;28;20353;-79
2022/09/08 03:26:35;;;;;;;6.45;2.97;;;;;;;17.11;87.32;100695.31;5028520;28;20037;-80
2022/09/08 03:29:00;;;;;;;6.40;3.03;;;;;;;17.08;88.17;100697.50;5035390;28;20025;-79
2022/09/08 03:31:26;;;;;;;4.97;3.05;;;;;;;17.10;87.18;100704.41;5037042;28;20442;-79
2022/09/08 03:33:53;;;;;;;5.55;2.92;;;;;;;17.04;87.31;100714.91;5036943;28;20448;-80
2022/09/08 03:36:20;;;;;;;6.25;3.15;;;;;;;17.02;87.85;100720.47;5019025;28;20029;-80
2022/09/08 03:38:45;;;;;;;5.03;3.05;;;;;;;16.98;87.73;100729.84;5016251;28;20363;-79
2022/09/08 03:41:13;;;;;;;5.90;2.88;;;;;;;16.99;88.22;100750.31;5029559;28;20081;-79
2022/09/08 03:43:48;;;;;;;8.77;3.33;;;;;;;16.95;87.91;100749.78;5037094;28;20029;-79
2022/09/08 03:46:14;;;;;;;8.00;3.05;;;;;;;16.86;87.93;100744.56;5027532;28;20683;-80
2022/09/08 03:48:45;;;;;;;7.05;3.17;;;;;;;16.83;87.73;100716.16;5037140;28;20392;-79
2022/09/08 03:51:17;;;;;;;6.43;3.47;;;;;;;16.79;88.51;100706.78;5023880;28;20026;-78
2022/09/08 03:53:44;;;;;;;7.95;3.30;;;;;;;16.75;89.05;100700.03;5036604;28;20102;-78
2022/09/08 03:56:11;;;;;;;7.00;3.33;;;;;;;16.69;89.75;100698.03;5036250;28;20072;-78
2022/09/08 03:58:37;;;;;;;7.13;3.53;;;;;;;16.65;89.02;100708.19;5032756;28;20109;-79
2022/09/08 04:01:29;;;;;;;8.68;3.28;;;;;;;16.72;88.84;100689.63;5031569;28;20029;-79
2022/09/08 04:03:54;;;;;;;9.82;3.13;;;;;;;16.61;88.68;100691.59;5031146;28;20075;-78
2022/09/08 04:06:20;;;;;;;7.50;3.53;;;;;;;16.62;89.53;100700.47;5030618;28;20050;-79
2022/09/08 04:08:46;;;;;;;7.97;3.13;;;;;;;16.60;89.36;100703.34;5027702;28;20319;-78
2022/09/08 04:11:11;;;;;;;11.80;3.72;;;;;;;16.57;90.44;100686.72;5036064;28;20439;-78
2022/09/08 04:13:37;;;;;;;8.68;3.47;;;;;;;16.52;89.76;100691.72;5035793;28;20057;-78
2022/09/08 04:16:03;;;;;;;6.38;3.13;;;;;;;16.45;90.11;100694.19;5024923;28;20026;-79
2022/09/08 04:18:29;;;;;;;6.10;3.45;;;;;;;16.40;90.33;100689.34;5027909;28;20095;-79
2022/09/08 04:20:56;;;;;;;6.90;3.35;;;;;;;16.42;90.43;100694.50;5017814;28;20472;-79
2022/09/08 04:23:22;;;;;;;10.20;3.42;;;;;;;16.35;91.15;100688.94;5017729;28;20033;-79
2022/09/08 04:25:58;;;;;;;6.53;3.07;;;;;;;16.36;91.06;100689.81;5027621;28;20029;-79
2022/09/08 04:28:23;;;;;;;7.07;3.45;;;;;;;16.35;91.17;100690.78;5029140;28;20282;-79
2022/09/08 04:30:49;;;;;;;5.95;3.10;;;;;;;16.36;90.43;100698.69;5035401;28;20021;-79
2022/09/08 04:33:14;;;;;;;7.68;3.58;;;;;;;16.36;90.91;100696.00;5034554;28;20032;-79
2022/09/08 04:35:39;;;;;;;6.60;3.10;;;;;;;16.37;90.68;100703.06;5035404;28;20519;-79
2022/09/08 04:38:05;;;;;;;8.37;3.57;;;;;;;16.37;91.67;100707.56;5034776;28;20030;-79
2022/09/08 04:40:33;;;;;;;8.60;3.70;;;;;;;16.37;91.63;100713.78;5026326;28;20296;-79
2022/09/08 04:42:58;;;;;;;8.30;3.70;;;;;;;16.35;92.40;100698.84;5034931;28;20284;-79
2022/09/08 04:45:23;;;;;;;9.40;3.47;;;;;;;16.41;92.17;100707.09;5024749;28;20108;-79
2022/09/08 04:47:48;;;;;;;6.97;3.57;;;;;;;16.44;92.43;100705.94;5035032;28;20292;-79
2022/09/08 04:50:14;;;;;;;8.63;4.23;;;;;;;16.44;92.30;100713.97;5034914;28;20322;-79
2022/09/08 04:52:39;;;;;;;7.38;3.65;;;;;;;16.46;92.98;100710.13;5020722;28;20301;-79
2022/09/08 04:55:05;;;;;;;8.80;4.30;;;;;;;16.46;92.56;100715.47;5034862;28;20041;-79
2022/09/08 04:57:30;;;;;;;10.13;4.53;;;;;;;16.45;93.06;100708.47;5035132;28;20025;-79
2022/09/08 04:59:56;;;;;;;6.75;3.92;;;;;;;16.49;92.76;100711.66;5031126;28;20499;-79
2022/09/08 05:02:21;;;;;;;8.00;3.80;;;;;;;16.44;92.46;100717.50;5027625;28;20026;-79
2022/09/08 05:04:46;;;;;;;7.18;3.85;;;;;;;16.48;92.56;100720.69;5028574;28;20041;-79
2022/09/08 05:07:11;;;;;;;9.43;4.00;;;;;;;16.47;92.66;100724.38;5027034;28;20123;-79
2022/09/08 05:09:37;;;;;;;9.30;4.03;;;;;;;16.49;92.56;100717.03;5028064;28;20300;-79
2022/09/08 05:12:02;;;;;;;6.30;3.92;;;;;;;16.45;92.68;100710.28;5034588;28;20751;-79
2022/09/08 05:14:27;;;;;;;7.80;3.80;;;;;;;16.51;92.75;100728.41;5025100;28;20025;-79
2022/09/08 05:16:53;;;;;;;10.38;4.07;;;;;;;16.47;92.20;100724.38;5034566;28;20025;-79
2022/09/08 05:19:18;;;;;;;8.37;4.33;;;;;;;16.45;93.13;100724.53;5033956;28;20032;-80
2022/09/08 05:21:43;;;;;;;7.85;4.15;;;;;;;16.49;93.40;100726.88;5034418;28;20845;-79
2022/09/08 05:24:08;;;;;;;8.17;4.40;;;;;;;16.51;93.00;100731.09;5033875;28;20017;-79
2022/09/08 05:26:34;;;;;;;7.07;4.30;;;;;;;16.43;93.59;100729.19;5032143;28;20334;-79
2022/09/08 05:29:00;;;;;;;8.70;4.53;;;;;;;16.46;92.79;100728.88;5033267;28;20113;-79
2022/09/08 05:31:28;;;;;;;8.07;4.20;;;;;;;16.46;93.79;100723.53;5035471;28;20108;-78
2022/09/08 05:33:58;;;;;;;11.15;4.53;;;;;;;16.45;92.74;100716.50;5035692;28;20017;-78
2022/09/08 05:36:26;;;;;;;9.63;5.07;;;;;;;16.46;93.57;100720.84;5030092;28;20033;-79
2022/09/08 05:38:52;;;;;;;8.52;4.63;;;;;;;16.51;93.65;100719.53;5035059;28;20531;-79
2022/09/08 05:41:18;;;;;;;7.18;4.75;;;;;;;16.48;93.11;100712.66;5018624;28;20030;-79
2022/09/08 05:43:44;;;;;;;7.57;4.97;;;;;;;16.47;93.55;100713.66;5037876;28;20053;-79
2022/09/08 05:46:09;;;;;;;8.98;4.78;;;;;;;16.49;93.94;100725.06;5038687;28;20079;-79
2022/09/08 05:48:35;;;;;;;9.98;4.97;;;;;;;16.46;92.81;100715.47;5036788;28;20486;-79
2022/09/08 05:51:02;;;;;;;7.32;4.82;;;;;;;16.49;93.03;100726.88;5036540;28;20025;-79
2022/09/08 05:53:28;;;;;;;6.97;4.47;;;;;;;16.46;93.06;100728.06;5029811;28;20137;-79
2022/09/08 05:55:59;;;;;;;5.72;4.22;;;;;;;16.48;93.58;100720.69;5015682;28;20445;-79
2022/09/08 05:58:25;;;;;;;7.25;4.32;;;;;;;16.40;93.30;100713.47;5035270;28;20412;-79
2022/09/08 06:01:10;;;;;;;8.02;4.93;;;;;;;16.45;93.41;100719.19;5034127;28;20029;-80
2022/09/08 06:03:36;;;;;;;8.73;5.32;;;;;;;16.44;93.65;100722.03;5024818;28;20036;-80
2022/09/08 06:06:07;;;;;;;9.48;5.18;;;;;;;16.44;93.55;100724.69;5035316;28;20035;-80
2022/09/08 06:08:33;;;;;;;10.05;5.40;;;;;;;16.42;94.11;100724.00;5035161;28;20017;-80
2022/09/08 06:10:59;;;;;;;8.30;4.93;;;;;;;16.45;93.88;100737.94;5035414;28;20037;-80
2022/09/08 06:13:25;;;;;;;9.82;5.63;;;;;;;16.49;93.18;100734.94;5034739;28;20030;-80
2022/09/08 06:15:50;;;;;;;7.13;5.40;;;;;;;16.45;93.01;100729.03;5034112;28;20116;-79
2022/09/08 06:18:19;;;;;;;10.38;5.57;;;;;;;16.46;94.08;100731.56;5033680;28;20075;-80
2022/09/08 06:20:45;;;;;;;10.88;5.80;;;;;;;16.42;94.06;100726.69;5033516;28;20033;-81
2022/09/08 06:23:12;;;;;;;6.53;5.53;;;;;;;16.46;93.97;100726.22;5030240;28;20504;-82
2022/09/08 06:25:42;;;;;;;6.85;5.40;;;;;;;16.45;94.41;100719.19;5018043;28;20499;-82
2022/09/08 06:28:17;;;;;;;12.48;6.20;;;;;;;16.36;95.22;100704.03;5029225;28;20028;-82
2022/09/08 06:30:50;;;;;;;12.43;6.63;;;;;;;16.45;95.21;100718.31;5033017;28;20167;-82
2022/09/08 06:33:21;;;;;;;9.88;6.00;;;;;;;16.50;95.54;100725.91;5015587;28;20527;-83
2022/09/08 06:36:02;;;;;;;10.73;6.28;;;;;;;16.51;94.82;100731.09;5033420;28;20026;-82
2022/09/08 06:38:36;;;;;;;9.13;6.50;;;;;;;16.49;94.91;100724.19;5016416;28;20052;-82
2022/09/08 06:41:10;;;;;;;12.52;6.75;;;;;;;16.52;95.21;100729.25;5018560;28;20025;-82
2022/09/08 06:43:46;;;;;;;10.77;6.63;;;;;;;16.54;95.01;100738.81;5028424;28;20041;-82
2022/09/08 06:46:25;;;;;;;9.48;6.07;;;;;;;16.57;94.90;100738.50;5023222;28;20034;-81
2022/09/08 06:48:51;;;;;;;9.40;6.10;;;;;;;16.56;95.12;100734.13;5027802;28;20078;-83
2022/09/08 06:51:26;;;;;;;13.13;6.82;;;;;;;16.59;96.01;100735.69;5020510;28;20029;-83
2022/09/08 06:54:09;;;;;;;8.68;6.72;;;;;;;16.62;95.89;100741.56;5020087;28;20040;-82
2022/09/08 06:56:37;;;;;;;9.10;6.60;;;;;;;16.60;95.39;100742.69;5023836;28;20026;-83
2022/09/08 06:59:22;;;;;;;10.18;6.97;;;;;;;16.61;95.45;100744.41;5032469;28;20091;-82
2022/09/08 07:02:04;;;;;;;13.70;7.65;;;;;;;16.60;95.17;100734.66;5027911;28;20040;-81
2022/09/08 07:04:53;;;;;;;10.57;7.40;;;;;;;16.67;94.92;100740.22;5017069;28;20021;-82
2022/09/08 07:07:27;;;;;;;12.90;8.13;;;;;;;16.66;96.39;100742.06;5025188;28;20080;-81
2022/09/08 07:09:56;;;;;;;13.65;7.60;;;;;;;16.72;96.15;100738.75;5036758;28;20104;-81
2022/09/08 07:12:58;;;;;;;10.60;8.60;;;;;;;16.76;95.69;100741.97;5039113;28;20086;-81
2022/09/08 07:15:32;;;;;;;12.02;8.05;;;;;;;16.74;95.61;100742.13;5032279;28;20057;-82
2022/09/08 07:18:16;;;;;;;12.70;8.23;;;;;;;16.80;95.52;100741.47;5037898;28;20403;-82
2022/09/08 07:20:42;;;;;;;11.25;8.23;;;;;;;16.82;96.16;100738.63;5021957;28;20022;-81
2022/09/08 07:23:16;;;;;;;12.63;8.05;;;;;;;16.81;94.79;100743.16;5020223;28;20105;-82
2022/09/08 07:25:54;;;;;;;9.65;8.23;;;;;;;16.82;95.05;100738.63;5031208;28;20518;-81
2022/09/08 07:28:23;;;;;;;13.27;8.43;;;;;;;16.87;94.61;100743.53;5035343;28;20085;-81
2022/09/08 07:31:00;;;;;;;15.63;8.27;;;;;;;16.89;95.94;100749.59;5020519;28;20032;-81
2022/09/08 07:33:40;;;;;;;17.92;9.32;;;;;;;16.99;95.29;100750.31;5040093;28;20424;-81
2022/09/08 07:36:32;;;;;;;15.98;9.48;;;;;;;17.15;96.03;100749.50;5041198;28;20025;-81
2022/09/08 07:39:02;;;;;;;12.65;9.27;;;;;;;17.29;96.00;100746.19;5038190;28;20064;-81
2022/09/08 07:41:37;;;;;;;13.73;9.40;;;;;;;17.46;95.98;100739.00;5034409;28;20029;-81
2022/09/08 07:44:13;;;;;;;15.13;9.20;;;;;;;17.50;94.67;100734.16;5041023;28;20053;-82
2022/09/08 07:47:05;;;;;;;13.13;8.40;;;;;;;17.60;95.46;100744.75;5042548;28;20412;-81
2022/09/08 07:49:49;;;;;;;10.82;8.70;;;;;;;17.65;92.92;100745.94;5037474;28;20037;-81
2022/09/08 07:52:42;;;;;;;10.27;8.10;;;;;;;17.71;92.76;100739.06;5026808;28;20393;-81
2022/09/08 07:55:20;;;;;;;11.60;8.63;;;;;;;17.87;93.30;100747.16;5055102;28;20468;-81
2022/09/08 07:58:30;;;;;;;10.27;8.73;;;;;;;17.98;90.84;100750.50;5038271;28;20029;-81
2022/09/08 08:01:14;;;;;;;9.55;7.43;;;;;;;18.04;89.31;100757.91;4960093;29;20300;-81
2022/09/08 08:03:53;;;;;;;11.35;8.02;;;;;;;18.11;88.66;100751.66;4960428;29;20031;-80
2022/09/08 08:06:47;;;;;;;9.82;6.55;;;;;;;18.23;87.98;100760.22;5013774;28;20376;-81
2022/09/08 08:09:30;;;;;;;8.02;6.15;;;;;;;18.31;85.67;100751.31;5011520;28;20029;-81
2022/09/08 08:12:14;;;;;;;7.72;6.80;;;;;;;18.42;87.51;100759.03;5037289;28;20361;-80
2022/09/08 08:14:55;;;;;;;7.78;6.40;;;;;;;18.45;85.76;100744.38;5036370;28;20451;-81
2022/09/08 08:17:36;;;;;;;7.30;6.00;;;;;;;18.64;84.72;100754.75;5036798;28;20029;-80
2022/09/08 08:20:16;;;;;;;9.05;6.60;;;;;;;18.78;84.37;100757.75;5033702;28;20117;-81
2022/09/08 08:23:12;;;;;;;9.93;6.30;;;;;;;18.95;83.62;100762.09;5037318;28;20527;-81
2022/09/08 08:25:53;;;;;;;7.78;5.88;;;;;;;19.11;81.85;100768.41;5036340;28;20017;-81
2022/09/08 08:28:19;;;;;;;8.10;5.55;;;;;;;19.38;81.81;100762.56;5035981;28;20033;-80
2022/09/08 08:30:53;;;;;;;7.20;4.85;;;;;;;19.41;81.08;100764.88;5036267;28;20036;-81
2022/09/08 08:33:26;;;;;;;8.25;5.53;;;;;;;19.39;82.06;100758.00;5035690;28;20021;-80
2022/09/08 08:36:13;;;;;;;7.70;4.45;;;;;;;19.51;80.02;100756.56;5036401;28;20029;-81
2022/09/08 08:38:43;;;;;;;5.78;4.50;;;;;;;19.60;80.68;100757.34;5035509;28;20033;-80
2022/09/08 08:41:33;;;;;;;5.60;4.60;;;;;;;19.67;80.05;100750.25;5035859;28;20032;-80
2022/09/08 08:44:19;;;;;;;6.85;3.92;;;;;;;19.63;76.88;100756.16;5036141;28;20026;-80
2022/09/08 08:47:06;;;;;;;6.97;3.75;;;;;;;19.70;77.20;100749.03;5026691;28;20030;-80
2022/09/08 08:49:41;;;;;;;6.88;3.45;;;;;;;19.74;78.03;100750.38;5027574;28;20028;-80
2022/09/08 08:52:44;;;;;;;8.00;3.45;;;;;;;19.83;77.13;100761.94;5017518;28;20053;-80
2022/09/08 08:55:36;;;;;;;5.50;3.47;;;;;;;19.87;77.98;100761.41;5036218;28;20100;-80
2022/09/08 08:58:33;;;;;;;6.35;3.22;;;;;;;20.10;76.28;100764.09;4994658;28;20042;-80
2022/09/08 09:01:18;;;;;;;4.15;2.95;;;;;;;20.24;76.96;100756.22;5034863;28;20064;-80
2022/09/08 09:03:58;;;;;;;4.50;2.65;;;;;;;20.39;77.06;100748.97;5035560;28;20033;-80
2022/09/08 09:06:39;;;;;;;6.78;2.35;;;;;;;20.68;73.64;100747.31;5035556;28;20025;-80
2022/09/08 09:09:36;;;;;;;6.75;2.38;;;;;;;20.83;75.01;100737.38;5016372;28;20065;-80
2022/09/08 09:12:20;;;;;;;6.85;2.25;;;;;;;21.00;73.87;100753.34;5035196;28;20496;-80
2022/09/08 09:15:04;;;;;;;4.75;2.42;;;;;;;21.19;72.21;100751.94;5035163;28;20404;-80
2022/09/08 09:18:06;;;;;;;5.28;1.92;;;;;;;21.49;72.35;100755.41;5035159;28;20079;-79
2022/09/08 09:21:07;;;;;;;6.35;2.05;;;;;;;21.71;70.91;100752.72;5035171;28;20030;-80
2022/09/08 09:23:59;;;;;;;5.05;2.00;;;;;;;21.94;69.49;100750.66;4951180;28;20029;-80
2022/09/08 09:26:29;;;;;;;6.93;2.00;;;;;;;21.96;64.64;100740.47;5034466;28;20036;-80
2022/09/08 09:29:14;;;;;;;5.88;1.80;;;;;;;22.21;67.86;100752.75;5018038;28;20034;-81
2022/09/08 09:32:23;;;;;;;7.07;1.88;;;;;;;22.34;66.92;100753.69;5029165;28;20029;-79
2022/09/08 09:35:13;;;;;;;4.82;1.38;;;;;;;22.60;63.46;100752.22;5015777;28;20535;-79
2022/09/08 09:38:22;;;;;;;5.18;1.65;;;;;;;22.75;63.71;100751.22;5020479;28;20041;-79
2022/09/08 09:41:27;;;;;;;5.90;2.22;;;;;;;22.85;62.98;100738.19;5054596;28;20041;-79
2022/09/08 09:44:14;;;;;;;4.75;1.58;;;;;;;22.99;62.85;100744.47;5061073;28;20051;-78
2022/09/08 09:46:48;;;;;;;5.38;1.60;;;;;;;23.29;61.33;100747.75;5057120;28;20411;-79
2022/09/08 09:49:51;;;;;;;3.90;1.38;;;;;;;23.35;60.00;100746.06;5057722;28;20055;-78
2022/09/08 09:52:42;;;;;;;5.15;2.00;;;;;;;23.38;60.56;100742.97;5047403;28;20052;-77
2022/09/08 09:55:30;;;;;;;6.07;1.65;;;;;;;23.27;61.48;100747.94;5046898;28;20088;-79
2022/09/08 09:58:38;;;;;;;5.38;1.40;;;;;;;23.46;62.24;100737.34;5049990;28;20029;-79
2022/09/08 10:01:16;;;;;;;5.60;1.85;;;;;;;23.39;58.46;100750.06;5062317;28;20035;-78
2022/09/08 10:04:15;;;;;;;6.35;2.05;;;;;;;23.42;59.65;100742.34;5047056;28;20400;-79
2022/09/08 10:07:10;;;;;;;5.20;1.50;;;;;;;23.42;59.83;100750.50;5039127;28;20033;-78
2022/09/08 10:10:18;;;;;;;5.63;2.28;;;;;;;23.63;57.71;100749.50;5044517;28;20499;-77
2022/09/08 10:12:49;;;;;;;5.40;1.80;;;;;;;23.61;55.87;100759.69;5046214;28;20056;-78
2022/09/08 10:15:34;;;;;;;5.15;1.75;;;;;;;23.84;57.49;100755.81;5044714;28;20037;-77
2022/09/08 10:18:34;;;;;;;5.75;1.75;;;;;;;23.91;55.98;100755.81;5043245;28;20022;-80
2022/09/08 10:21:33;;;;;;;7.07;1.55;;;;;;;23.72;55.89;100758.25;5050436;28;20048;-81
2022/09/08 10:23:58;;;;;;;7.78;2.15;;;;;;;23.66;57.69;100756.38;5053181;28;20009;-82
2022/09/08 10:26:43;;;;;;;4.70;1.50;;;;;;;23.62;56.36;100758.66;5058836;28;20051;-82
2022/09/08 10:29:35;;;;;;;7.30;1.92;;;;;;;23.53;56.85;100762.63;5052191;28;20014;-81
2022/09/08 10:32:21;;;;;;;6.15;1.80;;;;;;;23.48;54.48;100764.25;5044595;28;20022;-80
2022/09/08 10:35:16;;;;;;;6.15;2.15;;;;;;;23.73;56.54;100765.38;5008362;28;20097;-81
2022/09/08 10:38:00;;;;;;;6.22;1.60;;;;;;;23.92;55.85;100762.91;5056083;28;20017;-82
2022/09/08 10:40:58;;;;;;;3.58;1.50;;;;;;;24.06;56.37;100761.84;5054433;28;20045;-81
2022/09/08 10:43:43;;;;;;;9.32;1.92;;;;;;;24.22;54.96;100748.94;5060386;28;20040;-81
2022/09/08 10:46:43;;;;;;;6.78;2.00;;;;;;;24.23;55.70;100746.00;5057856;28;20014;-82
2022/09/08 10:49:46;;;;;;;3.08;1.38;;;;;;;24.28;55.69;100756.22;5044634;28;20014;-82
2022/09/08 10:52:31;;;;;;;3.92;1.60;;;;;;;24.24;54.90;100741.41;5050982;28;20041;-82
2022/09/08 10:55:06;;;;;;;5.40;1.58;;;;;;;23.94;53.59;100750.78;5050313;28;20040;-81
2022/09/08 10:58:14;;;;;;;6.10;1.67;;;;;;;23.96;54.74;100745.16;5048652;28;20029;-82
2022/09/08 11:01:04;;;;;;;5.15;1.60;;;;;;;24.06;55.02;100747.47;5053851;28;20021;-82
2022/09/08 11:04:02;;;;;;;5.50;1.55;;;;;;;24.25;56.39;100743.06;5057437;28;20052;-82
2022/09/08 11:06:55;;;;;;;5.13;1.77;;;;;;;24.24;54.88;100741.41;5051643;28;20029;-82
2022/09/08 11:09:34;;;;;;;6.03;1.77;;;;;;;24.34;53.31;100739.09;5062851;28;20036;-82
2022/09/08 11:12:24;;;;;;;5.38;1.75;;;;;;;24.36;54.45;100742.41;5058310;28;20021;-82
2022/09/08 11:15:11;;;;;;;5.55;1.88;;;;;;;24.48;53.83;100734.47;5049799;28;19997;-82
2022/09/08 11:17:46;;;;;;;8.00;1.50;;;;;;;24.68;52.49;100737.16;5054121;28;20030;-78
2022/09/08 11:20:25;;;;;;;7.47;1.70;;;;;;;24.35;51.85;100738.88;5051320;28;20479;-78
2022/09/08 11:23:06;;;;;;;7.40;1.60;;;;;;;24.15;50.73;100733.47;5032920;28;20036;-79
2022/09/08 11:25:51;;;;;;;7.20;1.73;;;;;;;23.91;52.49;100736.81;5033897;28;20078;-78
2022/09/08 11:28:29;;;;;;;7.22;1.58;;;;;;;23.79;51.18;100729.25;5033693;28;20364;-78
2022/09/08 11:31:11;;;;;;;6.78;1.77;;;;;;;23.68;51.16;100729.91;5034543;28;20037;-79
2022/09/08 11:34:01;;;;;;;5.55;1.88;;;;;;;23.85;51.58;100724.09;5034030;28;20032;-79
2022/09/08 11:37:03;;;;;;;7.30;1.60;;;;;;;24.22;52.98;100711.75;5033831;28;20472;-78
2022/09/08 11:39:44;;;;;;;9.10;1.85;;;;;;;24.15;50.77;100716.38;5033716;28;20472;-79
2022/09/08 11:42:36;;;;;;;4.38;1.88;;;;;;;23.91;51.57;100715.94;5034180;28;20033;-78
2022/09/08 11:46:10;;;;;;;5.13;1.58;;;;;;;24.21;52.54;100712.78;5033378;28;20028;-78
2022/09/08 11:48:58;;;;;;;6.07;1.70;;;;;;;24.52;51.76;100719.44;4925161;29;20051;-79
2022/09/08 11:51:50;;;;;;;5.88;1.70;;;;;;;24.68;50.69;100715.44;4950546;28;20043;-78
2022/09/08 11:54:49;;;;;;;3.92;1.63;;;;;;;24.73;48.79;100697.47;5044385;28;20052;-78
2022/09/08 11:57:30;;;;;;;5.38;1.70;;;;;;;25.01;49.83;100703.59;5037276;28;20448;-78
2022/09/08 12:00:07;;;;;;;4.72;1.80;;;;;;;25.20;48.84;100708.09;5037335;28;20061;-79
2022/09/08 12:02:51;;;;;;;4.93;1.60;;;;;;;25.24;47.33;100703.06;5039415;28;20035;-79
2022/09/08 12:05:31;;;;;;;4.20;1.70;;;;;;;25.28;48.00;100699.72;5036517;28;20018;-79
2022/09/08 12:08:27;;;;;;;4.43;1.80;;;;;;;25.21;48.46;100698.06;5037350;28;20076;-75